createdAt,value
2022-10-09T00:01:05.151Z,12.26
2022-10-09T00:03:32.983Z,12.16
2022-10-09T00:06:04.570Z,12.23
2022-10-09T00:08:32.327Z,12.33
2022-10-09T00:11:00.041Z,11.83
2022-10-09T00:13:27.865Z,12.14
2022-10-09T00:15:55.564Z,12.18
2022-10-09T00:18:23.311Z,12.04
2022-10-09T00:20:51.037Z,12.23
2022-10-09T00:23:20.594Z,12.27
2022-10-09T00:25:53.603Z,12.12
2022-10-09T00:28:21.494Z,12.03
2022-10-09T00:30:49.308Z,11.94
2022-10-09T00:33:17.420Z,12.13
2022-10-09T00:35:45.200Z,12.18
2022-10-09T00:38:13.198Z,12.21
2022-10-09T00:40:42.787Z,12.10
2022-10-09T00:43:16.608Z,12.11
2022-10-09T00:45:49.344Z,12.40
2022-10-09T00:48:19.649Z,12.07
2022-10-09T00:50:53.877Z,11.99
2022-10-09T00:53:24.721Z,12.13
2022-10-09T00:55:54.345Z,12.03
2022-10-09T00:58:22.930Z,12.24
2022-10-09T01:00:51.060Z,12.07
2022-10-09T01:03:18.810Z,11.77
2022-10-09T01:05:54.584Z,11.93
2022-10-09T01:08:29.222Z,11.90
2022-10-09T01:11:05.496Z,11.86
2022-10-09T01:13:37.284Z,11.81
2022-10-09T01:16:11.830Z,12.07
2022-10-09T01:18:48.073Z,11.82
2022-10-09T01:21:19.401Z,11.91
2022-10-09T01:24:19.884Z,12.06
2022-10-09T01:27:03.861Z,12.17
2022-10-09T01:29:37.010Z,12.20
2022-10-09T01:32:06.740Z,11.93
2022-10-09T01:34:34.941Z,12.13
2022-10-09T01:37:03.965Z,12.06
2022-10-09T01:39:34.809Z,12.23
2022-10-09T01:42:04.341Z,11.91
2022-10-09T01:44:33.924Z,12.09
2022-10-09T01:47:02.178Z,11.90
2022-10-09T01:49:48.390Z,11.86
2022-10-09T01:52:26.814Z,12.05
2022-10-09T01:55:21.986Z,12.02
2022-10-09T01:57:55.689Z,11.79
2022-10-09T02:00:23.909Z,11.83
2022-10-09T02:02:54.347Z,11.67
2022-10-09T02:05:24.439Z,11.62
2022-10-09T02:07:52.604Z,11.67
2022-10-09T02:10:22.763Z,11.90
2022-10-09T02:12:57.199Z,11.97
2022-10-09T02:15:29.259Z,11.47
2022-10-09T02:18:03.411Z,11.52
2022-10-09T02:20:35.932Z,11.25
2022-10-09T02:23:07.382Z,11.12
2022-10-09T02:25:36.337Z,11.12
2022-10-09T02:28:06.617Z,11.19
2022-10-09T02:30:42.981Z,11.21
2022-10-09T02:33:10.704Z,11.10
2022-10-09T02:35:39.430Z,11.11
2022-10-09T02:38:07.144Z,10.95
2022-10-09T02:40:34.827Z,11.52
2022-10-09T02:43:02.561Z,11.75
2022-10-09T02:45:31.613Z,11.48
2022-10-09T02:47:59.308Z,11.54
2022-10-09T02:50:27.006Z,11.75
2022-10-09T02:52:54.732Z,11.59
2022-10-09T02:55:22.425Z,11.93
2022-10-09T02:57:50.156Z,12.00
2022-10-09T03:00:17.923Z,11.85
2022-10-09T03:02:47.338Z,11.81
2022-10-09T03:05:15.451Z,11.94
2022-10-09T03:07:50.468Z,11.67
2022-10-09T03:10:19.016Z,11.63
2022-10-09T03:12:47.150Z,11.52
2022-10-09T03:15:15.550Z,11.57
2022-10-09T03:17:43.387Z,11.42
2022-10-09T03:20:12.456Z,11.55
2022-10-09T03:22:40.215Z,11.46
2022-10-09T03:25:09.194Z,11.45
2022-10-09T03:27:36.904Z,11.58
2022-10-09T03:30:05.371Z,11.70
2022-10-09T03:32:33.174Z,11.72
2022-10-09T03:35:00.923Z,11.79
2022-10-09T03:37:29.970Z,11.57
2022-10-09T03:39:57.708Z,11.13
2022-10-09T03:42:25.861Z,10.78
2022-10-09T03:44:53.567Z,11.23
2022-10-09T03:47:21.292Z,11.03
2022-10-09T03:49:48.976Z,11.07
2022-10-09T03:52:16.666Z,11.34
2022-10-09T03:54:45.773Z,11.47
2022-10-09T03:57:13.475Z,11.12
2022-10-09T03:59:41.493Z,11.05
2022-10-09T04:02:09.211Z,11.22
2022-10-09T04:04:36.939Z,11.06
2022-10-09T04:07:04.639Z,11.34
2022-10-09T04:09:32.349Z,11.08
2022-10-09T04:12:01.412Z,11.18
2022-10-09T04:14:29.109Z,11.21
2022-10-09T04:16:56.800Z,10.83
2022-10-09T04:19:24.486Z,10.86
2022-10-09T04:21:52.201Z,10.97
2022-10-09T04:24:19.888Z,10.85
2022-10-09T04:26:47.583Z,10.98
2022-10-09T04:29:16.632Z,10.81
2022-10-09T04:31:44.379Z,10.91
2022-10-09T04:34:12.158Z,10.92
2022-10-09T04:36:39.851Z,11.18
2022-10-09T04:39:07.798Z,11.15
2022-10-09T04:41:38.350Z,10.95
2022-10-09T04:44:06.624Z,11.06
2022-10-09T04:46:35.718Z,10.98
2022-10-09T04:49:03.541Z,10.96
2022-10-09T04:51:31.500Z,11.14
2022-10-09T04:54:00.792Z,11.05
2022-10-09T04:56:28.881Z,10.88
2022-10-09T04:58:56.569Z,11.11
2022-10-09T05:01:26.037Z,10.90
2022-10-09T05:03:55.922Z,10.70
2022-10-09T05:06:25.285Z,10.28
2022-10-09T05:08:55.063Z,10.02
2022-10-09T05:11:24.515Z,10.39
2022-10-09T05:13:54.241Z,10.02
2022-10-09T05:16:24.322Z,9.95
2022-10-09T05:18:55.827Z,9.93
2022-10-09T05:21:24.449Z,9.71
2022-10-09T05:23:53.713Z,9.93
2022-10-09T05:26:23.000Z,9.87
2022-10-09T05:28:51.457Z,10.07
2022-10-09T05:31:22.071Z,9.97
2022-10-09T05:33:49.979Z,9.98
2022-10-09T05:36:19.671Z,9.66
2022-10-09T05:38:47.482Z,10.06
2022-10-09T05:41:17.120Z,10.06
2022-10-09T05:43:47.941Z,10.01
2022-10-09T05:46:17.566Z,9.92
2022-10-09T05:48:47.141Z,9.94
2022-10-09T05:51:16.684Z,9.76
2022-10-09T05:53:47.768Z,9.63
2022-10-09T05:56:17.627Z,9.63
2022-10-09T05:58:46.418Z,9.69
2022-10-09T06:01:14.174Z,9.57
2022-10-09T06:03:41.884Z,9.48
2022-10-09T06:06:09.952Z,9.21
2022-10-09T06:08:39.103Z,9.25
2022-10-09T06:11:12.768Z,9.09
2022-10-09T06:13:40.941Z,9.16
2022-10-09T06:16:11.451Z,8.92
2022-10-09T06:18:39.564Z,9.47
2022-10-09T06:21:07.605Z,9.64
2022-10-09T06:23:36.313Z,9.60
2022-10-09T06:26:06.284Z,9.69
2022-10-09T06:28:36.310Z,9.72
2022-10-09T06:31:06.115Z,10.22
2022-10-09T06:33:34.897Z,10.53
2022-10-09T06:36:09.679Z,10.69
2022-10-09T06:38:38.856Z,10.23
2022-10-09T06:41:08.597Z,10.46
2022-10-09T06:43:37.870Z,10.50
2022-10-09T06:46:07.107Z,10.67
2022-10-09T06:48:36.394Z,10.45
2022-10-09T06:51:05.494Z,10.18
2022-10-09T06:53:35.906Z,10.57
2022-10-09T06:56:04.132Z,10.90
2022-10-09T06:58:31.876Z,11.37
2022-10-09T07:01:09.695Z,11.30
2022-10-09T07:03:38.895Z,11.47
2022-10-09T07:06:08.461Z,11.16
2022-10-09T07:08:37.059Z,11.45
2022-10-09T07:11:12.258Z,11.07
2022-10-09T07:13:40.454Z,11.09
2022-10-09T07:16:10.365Z,11.13
2022-10-09T07:18:39.327Z,11.61
2022-10-09T07:21:09.705Z,11.43
2022-10-09T07:23:37.777Z,11.71
2022-10-09T07:26:11.736Z,11.88
2022-10-09T07:28:39.774Z,11.89
2022-10-09T07:31:09.280Z,12.19
2022-10-09T07:33:37.153Z,12.45
2022-10-09T07:36:06.867Z,12.07
2022-10-09T07:38:34.833Z,12.97
2022-10-09T07:41:03.623Z,12.42
2022-10-09T07:43:32.104Z,12.51
2022-10-09T07:46:00.479Z,13.86
2022-10-09T07:48:29.938Z,14.12
2022-10-09T07:50:57.981Z,15.07
2022-10-09T07:53:25.658Z,15.85
2022-10-09T07:55:53.389Z,15.49
2022-10-09T07:58:21.064Z,16.60
2022-10-09T08:00:48.740Z,16.80
2022-10-09T08:03:16.438Z,17.60
2022-10-09T08:05:45.504Z,17.99
2022-10-09T08:08:13.212Z,17.74
2022-10-09T08:10:40.966Z,18.33
2022-10-09T08:13:08.684Z,19.43
2022-10-09T08:15:41.462Z,19.65
2022-10-09T08:18:09.269Z,18.85
2022-10-09T08:20:36.990Z,20.14
2022-10-09T08:23:06.467Z,19.74
2022-10-09T08:25:36.155Z,19.76
2022-10-09T08:28:04.942Z,20.80
2022-10-09T08:30:32.726Z,19.54
2022-10-09T08:33:00.399Z,19.59
2022-10-09T08:35:31.201Z,20.69
2022-10-09T08:38:02.089Z,22.20
2022-10-09T08:40:40.612Z,21.69
2022-10-09T08:43:10.654Z,21.85
2022-10-09T08:45:41.705Z,20.75
2022-10-09T08:48:17.316Z,21.54
2022-10-09T08:50:49.890Z,21.20
2022-10-09T08:53:30.357Z,20.76
2022-10-09T08:56:02.082Z,21.10
2022-10-09T08:58:33.974Z,23.17
2022-10-09T09:01:07.047Z,22.52
2022-10-09T09:03:49.956Z,21.69
2022-10-09T09:06:23.541Z,20.87
2022-10-09T09:08:57.639Z,20.72
2022-10-09T09:11:39.031Z,21.26
2022-10-09T09:14:21.299Z,19.24
2022-10-09T09:16:58.339Z,19.09
2022-10-09T09:19:42.403Z,20.55
2022-10-09T09:22:13.434Z,20.59
2022-10-09T09:24:46.312Z,22.87
2022-10-09T09:27:19.242Z,24.72
2022-10-09T09:29:53.160Z,23.17
2022-10-09T09:32:24.050Z,21.70
2022-10-09T09:34:52.036Z,21.23
2022-10-09T09:37:19.786Z,22.72
2022-10-09T09:42:36.624Z,22.84
2022-10-09T09:45:08.751Z,21.73
2022-10-09T09:47:42.107Z,22.49
2022-10-09T09:50:23.472Z,22.87
2022-10-09T09:52:58.566Z,22.05
2022-10-09T09:55:29.843Z,23.29
2022-10-09T09:58:04.048Z,24.11
2022-10-09T10:00:32.551Z,24.65
2022-10-09T10:03:06.264Z,23.11
2022-10-09T10:05:37.589Z,22.88
2022-10-09T10:08:22.926Z,23.01
2022-10-09T10:10:52.173Z,24.28
2022-10-09T10:13:23.739Z,25.40
2022-10-09T10:15:56.487Z,24.76
2022-10-09T10:18:26.113Z,23.93
2022-10-09T10:20:56.458Z,23.17
2022-10-09T10:23:27.421Z,22.83
2022-10-09T10:25:58.834Z,22.70
2022-10-09T10:28:33.110Z,22.84
2022-10-09T10:31:05.838Z,23.27
2022-10-09T10:33:34.803Z,23.44
2022-10-09T10:36:02.686Z,23.26
2022-10-09T10:38:33.904Z,23.49
2022-10-09T10:41:12.270Z,23.17
2022-10-09T10:43:44.494Z,24.20
2022-10-09T10:46:20.049Z,22.84
2022-10-09T10:48:49.740Z,22.51
2022-10-09T10:51:47.710Z,23.50
2022-10-09T10:54:31.647Z,23.69
2022-10-09T10:57:08.766Z,23.56
2022-10-09T10:59:43.226Z,24.96
2022-10-09T11:02:50.154Z,25.77
2022-10-09T11:05:27.572Z,26.13
2022-10-09T11:08:06.780Z,25.54
2022-10-09T11:10:40.736Z,24.46
2022-10-09T11:13:14.253Z,24.97
2022-10-09T11:15:56.009Z,22.06
2022-10-09T11:18:34.431Z,22.42
2022-10-09T11:21:10.404Z,22.17
2022-10-09T11:23:51.159Z,20.66
2022-10-09T11:26:30.143Z,20.17
2022-10-09T11:29:03.548Z,19.39
2022-10-09T11:31:38.217Z,20.26
2022-10-09T11:34:13.405Z,21.27
2022-10-09T11:36:44.037Z,23.22
2022-10-09T11:39:16.082Z,22.85
2022-10-09T11:41:46.759Z,22.79
2022-10-09T11:44:26.888Z,21.65
2022-10-09T11:47:08.889Z,20.27
2022-10-09T11:49:49.618Z,20.33
2022-10-09T11:52:25.702Z,19.66
2022-10-09T11:54:53.445Z,19.71
2022-10-09T11:57:28.828Z,19.02
2022-10-09T12:00:08.295Z,18.92
2022-10-09T12:02:38.699Z,18.62
2022-10-09T12:05:18.428Z,18.37
2022-10-09T12:07:47.183Z,18.62
2022-10-09T12:10:34.432Z,18.44
2022-10-09T12:13:06.506Z,18.44
2022-10-09T12:15:41.072Z,18.60
2022-10-09T12:18:25.992Z,18.68
2022-10-09T12:20:56.523Z,18.51
2022-10-09T12:23:28.701Z,18.54
2022-10-09T12:25:57.844Z,19.07
2022-10-09T12:28:30.469Z,18.88
2022-10-09T12:31:00.737Z,19.30
2022-10-09T12:33:37.993Z,19.08
2022-10-09T12:36:12.800Z,19.85
2022-10-09T12:38:40.548Z,19.73
2022-10-09T12:41:20.856Z,20.33
2022-10-09T12:43:50.450Z,20.38
2022-10-09T12:46:28.058Z,21.47
2022-10-09T12:48:58.534Z,23.33
2022-10-09T12:51:28.147Z,24.33
2022-10-09T12:53:56.345Z,23.20
2022-10-09T12:56:27.869Z,22.77
2022-10-09T12:58:57.173Z,23.41
2022-10-09T13:01:25.687Z,23.42
2022-10-09T13:03:55.823Z,22.97
2022-10-09T13:06:27.815Z,23.23
2022-10-09T13:08:58.308Z,23.35
2022-10-09T13:11:32.510Z,23.17
2022-10-09T13:14:00.282Z,23.41
2022-10-09T13:16:28.380Z,22.80
2022-10-09T13:18:57.753Z,23.34
2022-10-09T13:21:31.388Z,22.54
2022-10-09T13:24:08.812Z,23.93
2022-10-09T13:26:36.589Z,24.03
2022-10-09T13:29:06.449Z,23.52
2022-10-09T13:31:36.573Z,22.97
2022-10-09T13:34:12.576Z,23.87
2022-10-09T13:36:41.868Z,24.39
2022-10-09T13:39:14.271Z,23.89
2022-10-09T13:41:43.288Z,22.26
2022-10-09T13:44:11.366Z,21.52
2022-10-09T13:46:39.079Z,22.32
2022-10-09T13:49:06.812Z,22.92
2022-10-09T13:51:36.104Z,22.23
2022-10-09T13:54:05.512Z,22.95
2022-10-09T13:56:33.227Z,23.14
2022-10-09T13:59:00.996Z,21.58
2022-10-09T14:01:28.865Z,23.19
2022-10-09T14:03:56.696Z,22.31
2022-10-09T14:06:24.424Z,22.95
2022-10-09T14:08:52.187Z,23.49
2022-10-09T14:11:21.316Z,24.47
2022-10-09T14:13:48.989Z,24.24
2022-10-09T14:16:16.827Z,23.34
2022-10-09T14:18:44.587Z,22.26
2022-10-09T14:21:15.227Z,22.42
2022-10-09T14:23:43.548Z,23.43
2022-10-09T14:26:11.401Z,22.18
2022-10-09T14:28:40.761Z,21.05
2022-10-09T14:31:09.295Z,21.37
2022-10-09T14:33:37.227Z,21.35
2022-10-09T14:36:09.207Z,21.12
2022-10-09T14:38:38.264Z,21.51
2022-10-09T14:41:06.595Z,21.63
2022-10-09T14:43:34.894Z,21.30
2022-10-09T14:46:05.718Z,21.07
2022-10-09T14:48:33.518Z,21.23
2022-10-09T14:51:05.984Z,22.63
2022-10-09T14:53:34.476Z,21.95
2022-10-09T14:56:03.196Z,21.34
2022-10-09T14:58:31.383Z,22.22
2022-10-09T15:00:59.535Z,21.80
2022-10-09T15:03:30.094Z,22.38
2022-10-09T15:05:58.480Z,20.82
2022-10-09T15:08:27.012Z,21.05
2022-10-09T15:10:55.030Z,20.82
2022-10-09T15:13:23.033Z,19.97
2022-10-09T15:15:50.727Z,20.08
2022-10-09T15:18:18.926Z,19.83
2022-10-09T15:20:48.298Z,19.82
2022-10-09T15:23:16.053Z,19.37
2022-10-09T15:25:49.345Z,20.08
2022-10-09T15:28:17.568Z,20.25
2022-10-09T15:30:45.988Z,20.35
2022-10-09T15:33:13.784Z,21.02
2022-10-09T15:35:41.600Z,19.99
2022-10-09T15:38:15.848Z,20.08
2022-10-09T15:40:46.088Z,20.13
2022-10-09T15:43:14.731Z,19.89
2022-10-09T15:45:42.986Z,19.70
2022-10-09T15:48:15.681Z,19.95
2022-10-09T15:50:46.254Z,20.19
2022-10-09T15:53:15.628Z,19.73
2022-10-09T15:55:43.510Z,19.72
2022-10-09T15:58:11.302Z,19.54
2022-10-09T16:00:39.923Z,18.76
2022-10-09T16:03:08.854Z,19.08
2022-10-09T16:05:40.007Z,18.66
2022-10-09T16:08:09.254Z,18.52
2022-10-09T16:10:47.858Z,18.18
2022-10-09T16:13:17.010Z,17.98
2022-10-09T16:15:47.123Z,17.59
2022-10-09T16:18:16.205Z,17.25
2022-10-09T16:20:44.651Z,16.93
2022-10-09T16:23:13.052Z,16.80
2022-10-09T16:25:42.783Z,16.62
2022-10-09T16:28:12.677Z,16.81
2022-10-09T16:30:41.986Z,16.57
2022-10-09T16:33:12.598Z,16.29
2022-10-09T16:35:41.178Z,16.35
2022-10-09T16:38:09.162Z,16.31
2022-10-09T16:41:00.901Z,15.90
2022-10-09T16:43:25.970Z,16.02
2022-10-09T16:45:53.753Z,16.06
2022-10-09T16:48:21.519Z,15.84
2022-10-09T16:50:49.229Z,15.80
2022-10-09T16:53:19.907Z,15.97
2022-10-09T16:55:47.590Z,15.58
2022-10-09T16:58:15.280Z,15.34
2022-10-09T17:00:44.401Z,15.50
2022-10-09T17:03:12.181Z,15.23
2022-10-09T17:05:40.162Z,15.37
2022-10-09T17:08:07.934Z,15.12
2022-10-09T17:10:36.657Z,15.34
2022-10-09T17:13:04.367Z,15.00
2022-10-09T17:15:32.282Z,15.13
2022-10-09T17:18:01.535Z,14.87
2022-10-09T17:20:29.318Z,15.03
2022-10-09T17:22:57.398Z,14.85
2022-10-09T17:25:25.074Z,14.87
2022-10-09T17:27:52.787Z,14.49
2022-10-09T17:30:20.498Z,14.54
2022-10-09T17:32:48.425Z,14.70
2022-10-09T17:35:18.106Z,14.84
2022-10-09T17:37:45.893Z,14.54
2022-10-09T17:40:13.655Z,14.39
2022-10-09T17:42:41.383Z,14.53
2022-10-09T17:45:12.590Z,14.76
2022-10-09T17:47:40.384Z,14.70
2022-10-09T17:50:09.194Z,14.53
2022-10-09T17:52:38.253Z,14.45
2022-10-09T17:55:06.887Z,14.43
2022-10-09T17:57:34.679Z,14.16
2022-10-09T18:00:02.475Z,14.11
2022-10-09T18:02:30.340Z,14.11
2022-10-09T18:04:58.343Z,14.24
2022-10-09T18:07:26.075Z,14.40
2022-10-09T18:09:55.533Z,14.27
2022-10-09T18:12:23.282Z,14.23
2022-10-09T18:14:51.088Z,14.20
2022-10-09T18:17:18.821Z,14.17
2022-10-09T18:19:46.534Z,13.91
2022-10-09T18:22:14.259Z,13.84
2022-10-09T18:24:41.946Z,13.96
2022-10-09T18:27:11.035Z,14.08
2022-10-09T18:29:39.178Z,13.76
2022-10-09T18:32:07.010Z,13.86
2022-10-09T18:34:39.029Z,13.66
2022-10-09T18:37:07.678Z,14.15
2022-10-09T18:39:35.436Z,13.62
2022-10-09T18:42:04.300Z,13.58
2022-10-09T18:44:40.183Z,13.39
2022-10-09T18:47:11.766Z,13.77
2022-10-09T18:49:44.537Z,13.96
2022-10-09T18:52:13.863Z,13.55
2022-10-09T18:54:43.335Z,13.50
2022-10-09T18:57:11.346Z,13.35
2022-10-09T18:59:41.124Z,13.36
2022-10-09T19:02:08.918Z,13.65
2022-10-09T19:04:42.380Z,13.50
2022-10-09T19:07:10.318Z,13.38
2022-10-09T19:09:38.326Z,13.13
2022-10-09T19:12:06.206Z,13.11
2022-10-09T19:14:35.373Z,13.19
2022-10-09T19:17:07.881Z,13.23
2022-10-09T19:19:35.633Z,13.38
2022-10-09T19:22:03.398Z,13.37
2022-10-09T19:24:34.230Z,13.25
2022-10-09T19:27:03.391Z,13.25
2022-10-09T19:29:31.157Z,13.07
2022-10-09T19:31:58.931Z,13.28
2022-10-09T19:34:28.565Z,13.26
2022-10-09T19:36:56.371Z,13.19
2022-10-09T19:39:24.110Z,13.13
2022-10-09T19:41:52.009Z,13.05
2022-10-09T19:44:19.801Z,12.93
2022-10-09T19:46:48.147Z,12.92
2022-10-09T19:49:15.913Z,13.14
2022-10-09T19:51:45.320Z,13.17
2022-10-09T19:54:13.150Z,12.76
2022-10-09T19:56:41.890Z,12.89
2022-10-09T19:59:10.185Z,12.83
2022-10-09T20:01:40.406Z,13.00
2022-10-09T20:04:11.284Z,12.87
2022-10-09T20:06:41.389Z,12.50
2022-10-09T20:09:12.547Z,12.51
2022-10-09T20:11:40.295Z,12.38
2022-10-09T20:14:09.268Z,12.34
2022-10-09T20:16:37.568Z,12.48
2022-10-09T20:19:05.691Z,12.57
2022-10-09T20:21:34.716Z,12.58
2022-10-09T20:24:06.094Z,12.58
2022-10-09T20:26:42.828Z,12.91
2022-10-09T20:29:10.972Z,12.38
2022-10-09T20:31:41.302Z,12.41
2022-10-09T20:34:11.636Z,12.50
2022-10-09T20:36:40.096Z,12.34
2022-10-09T20:39:10.475Z,12.25
2022-10-09T20:41:43.360Z,12.40
2022-10-09T20:44:15.346Z,12.26
2022-10-09T20:46:45.872Z,12.52
2022-10-09T20:49:15.367Z,12.43
2022-10-09T20:51:43.726Z,12.43
2022-10-09T20:54:17.218Z,12.54
2022-10-09T20:56:46.396Z,12.62
2022-10-09T20:59:18.220Z,12.37
2022-10-09T21:01:46.484Z,12.26
2022-10-09T21:04:14.816Z,12.47
2022-10-09T21:06:42.711Z,12.13
2022-10-09T21:09:10.488Z,12.21
2022-10-09T21:11:39.892Z,12.35
2022-10-09T21:14:10.464Z,12.37
2022-10-09T21:16:38.381Z,12.25
2022-10-09T21:19:07.070Z,12.07
2022-10-09T21:21:35.283Z,12.13
2022-10-09T21:24:03.499Z,12.02
2022-10-09T21:26:35.293Z,11.86
2022-10-09T21:29:03.924Z,12.19
2022-10-09T21:31:34.408Z,12.01
2022-10-09T21:34:02.787Z,11.56
2022-10-09T21:36:41.036Z,11.75
2022-10-09T21:39:15.156Z,11.72
2022-10-09T21:41:42.904Z,11.63
2022-10-09T21:44:10.739Z,11.59
2022-10-09T21:46:41.729Z,11.66
2022-10-09T21:49:21.901Z,11.69
2022-10-09T21:51:49.701Z,12.00
2022-10-09T21:54:17.811Z,12.03
2022-10-09T21:56:45.565Z,11.92
2022-10-09T21:59:13.580Z,12.00
2022-10-09T22:01:42.728Z,11.95
2022-10-09T22:04:10.505Z,11.76
2022-10-09T22:06:38.211Z,11.81
2022-10-09T22:09:05.935Z,11.74
2022-10-09T22:11:33.676Z,11.78
2022-10-09T22:14:01.476Z,11.82
2022-10-09T22:16:29.196Z,11.91
2022-10-09T22:18:58.275Z,12.00
2022-10-09T22:21:25.990Z,11.92
2022-10-09T22:23:53.786Z,12.03
2022-10-09T22:26:23.166Z,12.01
2022-10-09T22:28:51.367Z,12.17
2022-10-09T22:31:20.937Z,11.84
2022-10-09T22:33:51.204Z,11.94
2022-10-09T22:36:23.878Z,11.61
2022-10-09T22:38:54.472Z,11.54
2022-10-09T22:41:24.158Z,11.49
2022-10-09T22:43:54.127Z,11.47
2022-10-09T22:46:24.069Z,11.57
2022-10-09T22:48:52.369Z,11.26
2022-10-09T22:51:23.377Z,11.52
2022-10-09T22:53:51.163Z,11.34
2022-10-09T22:56:20.653Z,10.90
2022-10-09T22:58:49.290Z,11.00
2022-10-09T23:01:20.482Z,10.97
2022-10-09T23:03:48.364Z,10.97
2022-10-09T23:06:19.019Z,11.05
2022-10-09T23:08:49.465Z,11.15
2022-10-09T23:11:18.807Z,11.12
2022-10-09T23:13:47.297Z,11.41
2022-10-09T23:16:16.435Z,11.17
2022-10-09T23:18:44.439Z,11.23
2022-10-09T23:21:14.103Z,11.45
2022-10-09T23:23:42.347Z,11.14
2022-10-09T23:26:14.472Z,11.50
2022-10-09T23:28:42.561Z,11.43
2022-10-09T23:31:12.634Z,11.27
2022-10-09T23:33:41.119Z,11.42
2022-10-09T23:36:10.903Z,11.27
2022-10-09T23:38:38.864Z,11.28
2022-10-09T23:41:08.544Z,11.30
2022-10-09T23:43:39.130Z,11.51
2022-10-09T23:46:08.958Z,11.50
2022-10-09T23:48:36.699Z,11.40
2022-10-09T23:51:05.803Z,11.37
2022-10-09T23:53:34.318Z,11.21
2022-10-09T23:56:02.431Z,11.57
2022-10-09T23:58:30.155Z,11.47
